Eugene, OR

12:11 AM PDT on September 23, 2014 (GMT -0700)
Newport Municipal | Change Station
CLOSE
Current Station
Airport
Location: Newport Airport,
Elevation: 157 ft
Nearby Weather Stations
Active Advisory: Special Statement

Elev 157 ft 44.58 °N, 124.06 °W | Updated 16 minutes ago

Overcast
Overcast
59 °F
Feels Like 59 °F
N
7
Wind Variable Wind from East

Today
High -- | Low -- °F
--% Chance of Precip.
Yesterday
High -- | Low -- °F
Precip. -- in
7:00 AM 7:07 PM
Waning Crescent, 1% visible
Pressure 29.93 in
Visibility 10.0 miles
Clouds Mostly Cloudy 2700 ft
Overcast 8000 ft
Dew Point 55 °F
Humidity 88%
Rainfall 0.00 in
Snow Depth Not available.
UV 0 out of 12
Pollen 1.60 out of 12
Ozone Good
PM2.5 Good
Flu Activity Not available.
METAR KONP 230655Z AUTO 09006KT 10SM BKN027 OVC080 15/13 A2993 RMK AO2

More Conditions Fewer Conditions

Pressure 29.93 in
Visibility 10.0 miles
Clouds Mostly Cloudy 2700 ft
Overcast 8000 ft
Dew Point 55 °F
Humidity 88%
Rainfall 0.00 in
Snow Depth Not available.
UV 0 out of 12
Pollen 1.60 out of 12
Ozone Good
PM2.5 Good
Flu Activity Not available.
METAR KONP 230655Z AUTO 09006KT 10SM BKN027 OVC080 15/13 A2993 RMK AO2

More Conditions Fewer Conditions

10-Day Weather Forecast

Almanac

Astronomy

Sep. 23, 2014 Rise Set
Actual Time 7:00 AM PDT 7:07 PM PDT
Civil Twilight 6:31 AM PDT 7:36 PM PDT
Nautical Twilight 5:58 AM PDT 8:10 PM PDT
Astronomical Twilight 5:23 AM PDT 8:44 PM PDT
Moon 6:30 AM PDT 6:48 PM PDT
Length of Visible Light 13h 04m
Length of Day
12h 06m
Tomorrow will be 3m 1s shorter.
Waning Crescent, 1% of the Moon is Illuminated
Today
Waning Crescent
Sep 24
New
Oct 1
First Quarter
Oct 8
Full
Oct 15
Last Quarter

Today's Extremes

State Highs State Lows

Community

WunderPhotos

Upload Photos

1,755,608 photos uploaded!

Nearby

Air Quality

  Air Quality AQ Index Pollutant
Yesterday Good
PM2.5
Yesterday Good
OZONE
Current Good
PM2.5
Current Good
OZONE
Monday Moderate
PM2.5
Monday Good
OZONE
Tuesday Good
OZONE
Tuesday Good
PM2.5

Snow Depth

Station Depth Elevation
Blue Mountain Spring 0 in 5900 ft
Salt Creek Falls 0 in 4000 ft
New Crescent Lake 0 in 4800 ft
King Mountain 0 in 4000 ft
Mt. Howard 0 in 7910 ft

Earthquake Activity

City Distance Mag. Time & Date
No recent earthquake activity has been reported nearby.
Minimum magnitude displayed is 2.5.

Coastal Water Temperatures

Place Temperature
No Stations Reporting

Nearby Weather Stations